createdAt,value
2018-05-10T00:00:26.391Z,20.00
2018-05-10T00:02:55.710Z,20.00
2018-05-10T00:05:24.835Z,20.00
2018-05-10T00:07:53.210Z,20.00
2018-05-10T00:10:21.415Z,20.00
2018-05-10T00:12:49.682Z,20.00
2018-05-10T00:15:17.962Z,20.00
2018-05-10T00:17:46.451Z,19.90
2018-05-10T00:20:14.727Z,19.90
2018-05-10T00:22:42.986Z,19.90
2018-05-10T00:25:11.290Z,19.90
2018-05-10T00:27:39.550Z,20.00
2018-05-10T00:30:08.806Z,19.90
2018-05-10T00:32:37.296Z,19.90
2018-05-10T00:35:05.568Z,19.70
2018-05-10T00:37:35.509Z,19.80
2018-05-10T00:40:04.693Z,19.70
2018-05-10T00:42:32.969Z,19.80
2018-05-10T00:45:01.540Z,19.80
2018-05-10T00:47:29.813Z,19.80
2018-05-10T00:49:58.267Z,19.70
2018-05-10T00:52:26.531Z,19.70
2018-05-10T00:54:57.500Z,19.80
2018-05-10T00:57:26.528Z,19.80
2018-05-10T00:59:54.771Z,19.80
2018-05-10T01:02:23.041Z,19.80
2018-05-10T01:04:52.109Z,19.70
2018-05-10T01:07:20.705Z,19.70
2018-05-10T01:09:49.039Z,19.70
2018-05-10T01:12:17.586Z,19.70
2018-05-10T01:14:46.802Z,19.70
2018-05-10T01:17:15.132Z,19.60
2018-05-10T01:19:43.398Z,19.60
2018-05-10T01:22:11.657Z,19.60
2018-05-10T01:24:40.096Z,19.50
2018-05-10T01:27:08.415Z,19.50
2018-05-10T01:29:36.818Z,19.40
2018-05-10T01:32:05.838Z,19.50
2018-05-10T01:34:34.115Z,19.50
2018-05-10T01:37:03.168Z,19.30
2018-05-10T01:39:31.396Z,19.30
2018-05-10T01:41:59.664Z,19.40
2018-05-10T01:44:28.678Z,19.40
2018-05-10T01:46:56.939Z,19.40
2018-05-10T01:49:25.939Z,19.20
2018-05-10T01:51:54.201Z,19.20
2018-05-10T01:54:23.214Z,19.10
2018-05-10T01:56:51.615Z,19.10
2018-05-10T01:59:19.857Z,18.90
2018-05-10T02:01:48.133Z,19.00
2018-05-10T02:04:17.141Z,19.00
2018-05-10T02:06:45.392Z,19.00
2018-05-10T02:09:13.690Z,18.90
2018-05-10T02:11:41.945Z,18.90
2018-05-10T02:14:10.988Z,18.80
2018-05-10T02:16:39.241Z,18.80
2018-05-10T02:19:07.492Z,18.80
2018-05-10T02:21:36.502Z,18.80
2018-05-10T02:24:04.774Z,18.70
2018-05-10T02:26:33.043Z,18.80
2018-05-10T02:29:02.059Z,18.40
2018-05-10T02:31:30.322Z,18.50
2018-05-10T02:33:58.589Z,18.40
2018-05-10T02:36:27.699Z,18.20
2018-05-10T02:38:55.880Z,18.20
2018-05-10T02:41:24.135Z,18.30
2018-05-10T02:43:52.391Z,18.40
2018-05-10T02:46:21.438Z,18.50
2018-05-10T02:48:49.683Z,18.50
2018-05-10T02:51:17.939Z,18.60
2018-05-10T02:53:46.984Z,18.70
2018-05-10T02:56:16.007Z,18.80
2018-05-10T02:58:44.271Z,18.80
2018-05-10T03:01:12.535Z,18.80
2018-05-10T03:03:40.778Z,18.70
2018-05-10T03:06:09.035Z,18.70
2018-05-10T03:08:38.090Z,18.80
2018-05-10T03:11:06.352Z,18.80
2018-05-10T03:13:34.604Z,18.80
2018-05-10T03:16:02.858Z,18.80
2018-05-10T03:18:31.864Z,18.70
2018-05-10T03:21:00.142Z,18.70
2018-05-10T03:23:28.399Z,18.70
2018-05-10T03:25:57.454Z,18.70
2018-05-10T03:28:25.743Z,18.70
2018-05-10T03:30:54.006Z,18.70
2018-05-10T03:33:22.371Z,18.70
2018-05-10T03:35:50.563Z,18.60
2018-05-10T03:38:18.842Z,18.60
2018-05-10T03:40:47.082Z,18.50
2018-05-10T03:43:15.355Z,18.50
2018-05-10T03:45:43.595Z,18.40
2018-05-10T03:48:11.854Z,18.40
2018-05-10T03:50:40.120Z,18.30
2018-05-10T03:53:08.396Z,18.30
2018-05-10T03:55:36.910Z,18.20
2018-05-10T03:58:05.163Z,18.20
2018-05-10T04:00:33.539Z,18.20
2018-05-10T04:06:07.098Z,18.40
2018-05-10T04:08:47.918Z,18.50
2018-05-10T04:11:22.050Z,18.50
2018-05-10T04:13:50.299Z,18.60
2018-05-10T04:16:18.586Z,18.60
2018-05-10T04:18:46.820Z,18.60
2018-05-10T04:21:15.075Z,18.50
2018-05-10T04:23:44.093Z,18.40
2018-05-10T04:26:12.359Z,18.40
2018-05-10T04:28:41.386Z,18.30
2018-05-10T04:31:09.653Z,18.30
2018-05-10T04:33:37.918Z,18.30
2018-05-10T04:36:06.182Z,18.30
2018-05-10T04:38:35.206Z,18.40
2018-05-10T04:41:03.463Z,18.30
2018-05-10T04:43:31.733Z,18.40
2018-05-10T04:46:00.762Z,18.70
2018-05-10T04:48:29.032Z,18.70
2018-05-10T04:50:57.322Z,18.80
2018-05-10T04:53:25.594Z,19.00
2018-05-10T04:55:53.867Z,19.20
2018-05-10T04:58:22.142Z,19.40
2018-05-10T05:00:50.442Z,19.50
2018-05-10T05:03:18.758Z,19.60
2018-05-10T05:05:46.961Z,19.60
2018-05-10T05:08:15.234Z,19.70
2018-05-10T05:10:43.522Z,19.80
2018-05-10T05:13:11.797Z,19.80
2018-05-10T05:15:40.050Z,19.80
2018-05-10T05:18:08.302Z,19.80
2018-05-10T05:20:37.328Z,19.80
2018-05-10T05:23:05.574Z,19.80
2018-05-10T05:25:34.640Z,20.00
2018-05-10T05:28:02.895Z,20.00
2018-05-10T05:30:31.174Z,20.20
2018-05-10T05:32:59.435Z,20.30
2018-05-10T05:35:27.760Z,20.30
2018-05-10T05:37:55.963Z,20.40
2018-05-10T05:40:24.252Z,20.50
2018-05-10T05:42:52.511Z,20.50
2018-05-10T05:45:20.780Z,20.50
2018-05-10T05:47:49.827Z,20.40
2018-05-10T05:50:18.118Z,20.40
2018-05-10T05:52:46.371Z,20.10
2018-05-10T05:55:14.637Z,20.20
2018-05-10T05:57:43.131Z,20.10
2018-05-10T06:00:11.385Z,20.30
2018-05-10T06:02:39.635Z,20.30
2018-05-10T06:05:08.682Z,20.20
2018-05-10T06:07:37.681Z,20.20
2018-05-10T06:10:05.930Z,20.30
2018-05-10T06:12:34.187Z,20.20
2018-05-10T06:15:02.471Z,20.10
2018-05-10T06:17:30.755Z,20.20
2018-05-10T06:19:59.026Z,20.20
2018-05-10T06:22:27.284Z,20.10
2018-05-10T06:24:56.401Z,20.10
2018-05-10T06:27:24.612Z,20.00
2018-05-10T06:29:52.862Z,19.70
2018-05-10T06:32:21.123Z,19.80
2018-05-10T06:34:49.391Z,19.90
2018-05-10T06:37:17.717Z,20.10
2018-05-10T06:39:45.969Z,20.20
2018-05-10T06:42:14.230Z,20.20
2018-05-10T06:44:42.493Z,20.20
2018-05-10T06:47:11.567Z,20.20
2018-05-10T06:49:39.816Z,20.20
2018-05-10T06:52:08.055Z,20.30
2018-05-10T06:54:36.326Z,20.40
2018-05-10T06:57:04.603Z,20.40
2018-05-10T06:59:32.869Z,20.50
2018-05-10T07:02:01.133Z,20.60
2018-05-10T07:04:29.379Z,20.80
2018-05-10T07:06:57.631Z,20.80
2018-05-10T07:09:26.050Z,20.80
2018-05-10T07:11:54.181Z,20.80
2018-05-10T07:14:22.473Z,20.60
2018-05-10T07:16:50.775Z,20.80
2018-05-10T07:19:19.069Z,20.80
2018-05-10T07:21:47.325Z,21.00
2018-05-10T07:24:15.614Z,21.30
2018-05-10T07:26:44.645Z,23.30
2018-05-10T07:29:12.970Z,23.30
2018-05-10T07:31:41.230Z,24.50
2018-05-10T07:34:09.512Z,26.60
2018-05-10T07:36:37.778Z,28.80
2018-05-10T07:39:06.027Z,30.70
2018-05-10T07:41:34.319Z,31.70
2018-05-10T07:44:02.589Z,30.90
2018-05-10T07:46:30.852Z,29.40
2018-05-10T07:48:59.129Z,27.20
2018-05-10T07:51:27.429Z,25.50
2018-05-10T07:53:55.684Z,24.80
2018-05-10T07:56:23.966Z,24.40
2018-05-10T07:58:52.219Z,24.10
2018-05-10T08:01:20.567Z,23.60
2018-05-10T08:03:48.784Z,23.50
2018-05-10T08:06:17.037Z,22.90
2018-05-10T08:08:46.051Z,22.60
2018-05-10T08:11:14.333Z,22.60
2018-05-10T08:13:42.577Z,22.50
2018-05-10T08:16:10.875Z,22.30
2018-05-10T08:18:39.112Z,22.20
2018-05-10T08:21:07.381Z,22.10
2018-05-10T08:23:48.198Z,22.20
2018-05-10T08:26:16.506Z,21.90
2018-05-10T08:28:45.526Z,22.00
2018-05-10T08:31:13.795Z,22.00
2018-05-10T08:33:42.074Z,21.80
2018-05-10T08:36:10.308Z,21.40
2018-05-10T08:38:38.619Z,21.90
2018-05-10T08:41:06.861Z,22.30
2018-05-10T08:43:35.109Z,22.40
2018-05-10T08:46:03.379Z,22.40
2018-05-10T08:48:32.415Z,22.40
2018-05-10T08:51:00.658Z,22.40
2018-05-10T08:53:29.674Z,21.90
2018-05-10T08:55:57.954Z,21.80
2018-05-10T08:58:26.282Z,22.10
2018-05-10T09:00:54.562Z,22.10
2018-05-10T09:03:23.575Z,22.10
2018-05-10T09:05:52.507Z,21.90
2018-05-10T09:08:23.632Z,21.50
2018-05-10T09:10:52.762Z,21.50
2018-05-10T09:13:21.642Z,21.40
2018-05-10T09:15:50.731Z,20.90
2018-05-10T09:18:19.852Z,20.90
2018-05-10T09:20:48.190Z,20.80
2018-05-10T09:23:17.097Z,20.80
2018-05-10T09:25:45.401Z,20.70
2018-05-10T09:28:13.791Z,20.60
2018-05-10T09:30:42.110Z,20.30
2018-05-10T09:33:11.246Z,20.30
2018-05-10T09:35:39.494Z,20.10
2018-05-10T09:38:07.752Z,19.70
2018-05-10T09:40:36.035Z,19.80
2018-05-10T09:43:04.283Z,19.80
2018-05-10T09:45:33.300Z,19.70
2018-05-10T09:48:01.561Z,19.60
2018-05-10T09:50:29.911Z,19.80
2018-05-10T09:52:58.174Z,20.00
2018-05-10T09:55:26.428Z,20.00
2018-05-10T09:57:54.713Z,20.00
2018-05-10T10:00:28.609Z,20.00
2018-05-10T10:02:56.854Z,20.20
2018-05-10T10:05:25.123Z,20.20
2018-05-10T10:07:54.186Z,20.30
2018-05-10T10:10:22.460Z,20.30
2018-05-10T10:12:50.705Z,20.60
2018-05-10T10:15:18.957Z,20.60
2018-05-10T10:17:47.227Z,20.60
2018-05-10T10:20:15.477Z,20.50
2018-05-10T10:22:43.754Z,20.80
2018-05-10T10:25:12.864Z,20.40
2018-05-10T10:27:41.084Z,20.40
2018-05-10T10:30:09.335Z,20.20
2018-05-10T10:32:37.606Z,20.30
2018-05-10T10:35:05.863Z,20.30
2018-05-10T10:37:34.882Z,20.50
2018-05-10T10:40:03.210Z,20.50
2018-05-10T10:42:32.151Z,20.60
2018-05-10T10:45:01.477Z,20.60
2018-05-10T10:47:30.537Z,20.50
2018-05-10T10:49:58.974Z,20.50
2018-05-10T10:52:27.264Z,20.30
2018-05-10T10:54:55.551Z,20.30
2018-05-10T10:57:23.906Z,20.40
2018-05-10T10:59:52.161Z,20.70
2018-05-10T11:02:21.399Z,21.00
2018-05-10T11:04:50.456Z,21.10
2018-05-10T11:07:18.706Z,21.10
2018-05-10T11:09:47.050Z,21.30
2018-05-10T11:12:15.331Z,21.30
2018-05-10T11:14:44.373Z,21.10
2018-05-10T11:17:12.629Z,21.10
2018-05-10T11:19:40.959Z,21.50
2018-05-10T11:22:09.860Z,21.50
2018-05-10T11:24:38.337Z,21.50
2018-05-10T11:27:06.751Z,21.50
2018-05-10T11:29:35.329Z,21.40
2018-05-10T11:32:03.655Z,21.40
2018-05-10T11:34:33.956Z,21.20
2018-05-10T11:37:02.222Z,21.20
2018-05-10T11:39:30.621Z,21.20
2018-05-10T11:41:58.872Z,21.10
2018-05-10T11:44:27.676Z,21.10
2018-05-10T11:46:55.986Z,21.10
2018-05-10T11:49:24.358Z,21.00
2018-05-10T11:51:52.650Z,21.10
2018-05-10T11:54:21.416Z,21.20
2018-05-10T11:56:49.776Z,21.20
2018-05-10T11:59:18.102Z,21.20
2018-05-10T12:01:46.401Z,21.00
2018-05-10T12:04:14.965Z,20.80
2018-05-10T12:06:43.242Z,20.60
2018-05-10T12:09:11.799Z,20.40
2018-05-10T12:11:40.322Z,20.10
2018-05-10T12:14:09.795Z,20.50
2018-05-10T12:16:38.469Z,20.60
2018-05-10T12:19:06.773Z,20.80
2018-05-10T12:21:34.980Z,20.90
2018-05-10T12:24:03.259Z,20.80
2018-05-10T12:26:31.574Z,20.80
2018-05-10T12:29:00.712Z,20.90
2018-05-10T12:31:29.828Z,21.30
2018-05-10T12:33:58.094Z,21.30
2018-05-10T12:36:26.819Z,21.40
2018-05-10T12:38:55.091Z,21.60
2018-05-10T12:41:23.390Z,21.50
2018-05-10T12:43:51.668Z,21.50
2018-05-10T12:46:19.979Z,21.20
2018-05-10T12:48:49.055Z,20.90
2018-05-10T12:51:17.348Z,20.90
2018-05-10T12:53:45.627Z,20.80
2018-05-10T12:56:14.062Z,20.90
2018-05-10T12:58:42.209Z,21.00
2018-05-10T13:01:11.250Z,21.00
2018-05-10T13:03:39.547Z,21.00
2018-05-10T13:06:08.588Z,20.70
2018-05-10T13:08:36.882Z,20.70
2018-05-10T13:11:05.162Z,20.40
2018-05-10T13:13:33.445Z,20.40
2018-05-10T13:16:01.746Z,20.50
2018-05-10T13:18:30.016Z,20.40
2018-05-10T13:20:58.299Z,20.40
2018-05-10T13:23:27.332Z,20.00
2018-05-10T13:25:56.551Z,19.90
2018-05-10T13:28:24.850Z,20.00
2018-05-10T13:30:53.134Z,20.00
2018-05-10T13:33:21.413Z,20.00
2018-05-10T13:35:49.685Z,19.80
2018-05-10T13:38:17.940Z,19.70
2018-05-10T13:40:46.242Z,19.40
2018-05-10T13:43:14.515Z,19.30
2018-05-10T13:45:42.784Z,19.40
2018-05-10T13:48:11.097Z,19.40
2018-05-10T13:50:40.115Z,19.40
2018-05-10T13:53:08.396Z,19.40
2018-05-10T13:55:37.736Z,19.50
2018-05-10T13:58:05.986Z,19.60
2018-05-10T14:00:34.326Z,19.60
2018-05-10T14:03:02.627Z,19.60
2018-05-10T14:05:30.969Z,19.30
2018-05-10T14:07:59.260Z,19.20
2018-05-10T14:10:27.564Z,18.80
2018-05-10T14:12:56.109Z,19.10
2018-05-10T14:15:24.967Z,19.20
2018-05-10T14:17:53.308Z,19.20
2018-05-10T14:20:21.996Z,19.10
2018-05-10T14:22:50.313Z,19.00
2018-05-10T14:25:18.613Z,18.90
2018-05-10T14:27:46.995Z,18.60
2018-05-10T14:30:16.184Z,18.50
2018-05-10T14:32:44.699Z,18.50
2018-05-10T14:35:13.133Z,18.40
2018-05-10T14:37:41.399Z,18.40
2018-05-10T14:40:10.819Z,18.00
2018-05-10T14:42:39.132Z,18.00
2018-05-10T14:45:07.454Z,17.90
2018-05-10T14:47:35.891Z,17.80
2018-05-10T14:50:04.275Z,17.70
2018-05-10T14:52:32.536Z,17.70
2018-05-10T14:55:01.657Z,17.70
2018-05-10T14:57:29.941Z,17.60
2018-05-10T14:59:58.200Z,17.40
2018-05-10T15:02:26.492Z,17.30
2018-05-10T15:04:54.775Z,17.00
2018-05-10T15:07:23.093Z,17.00
2018-05-10T15:09:51.494Z,17.00
2018-05-10T15:12:19.706Z,16.40
2018-05-10T15:14:47.987Z,15.90
2018-05-10T15:17:16.269Z,15.90
2018-05-10T15:19:44.585Z,15.60
2018-05-10T15:22:12.874Z,15.70
2018-05-10T15:24:41.173Z,15.50
2018-05-10T15:27:09.425Z,15.40
2018-05-10T15:29:37.696Z,15.30
2018-05-10T15:32:06.035Z,15.00
2018-05-10T15:34:34.732Z,15.20
2018-05-10T15:37:03.041Z,15.10
2018-05-10T15:39:31.457Z,15.30
2018-05-10T15:41:59.707Z,15.30
2018-05-10T15:44:28.077Z,15.00
2018-05-10T15:46:56.438Z,15.00
2018-05-10T15:49:24.838Z,15.10
2018-05-10T15:51:53.170Z,15.30
2018-05-10T15:54:21.407Z,15.30
2018-05-10T15:56:49.720Z,15.20
2018-05-10T15:59:18.017Z,15.30
2018-05-10T16:01:47.287Z,15.40
2018-05-10T16:04:15.981Z,15.30
2018-05-10T16:06:45.071Z,15.20
2018-05-10T16:09:13.315Z,15.20
2018-05-10T16:11:41.592Z,15.40
2018-05-10T16:14:09.897Z,15.30
2018-05-10T16:16:38.303Z,15.20
2018-05-10T16:19:07.372Z,15.40
2018-05-10T16:21:35.684Z,15.40
2018-05-10T16:24:04.703Z,15.50
2018-05-10T16:26:33.210Z,15.50
2018-05-10T16:29:01.417Z,15.70
2018-05-10T16:31:29.769Z,15.70
2018-05-10T16:33:58.056Z,15.70
2018-05-10T16:36:26.340Z,15.70
2018-05-10T16:38:54.692Z,15.70
2018-05-10T16:41:22.972Z,15.60
2018-05-10T16:43:51.251Z,15.60
2018-05-10T16:46:19.524Z,15.70
2018-05-10T16:48:48.552Z,15.60
2018-05-10T16:51:17.426Z,15.70
2018-05-10T16:53:46.737Z,15.70
2018-05-10T16:56:15.050Z,15.70
2018-05-10T16:58:43.291Z,15.50
2018-05-10T17:01:11.879Z,15.40
2018-05-10T17:03:40.199Z,15.20
2018-05-10T17:06:08.486Z,15.40
2018-05-10T17:08:36.759Z,15.40
2018-05-10T17:11:05.865Z,15.40
2018-05-10T17:13:34.186Z,15.40
2018-05-10T17:16:03.074Z,15.60
2018-05-10T17:18:31.361Z,15.70
2018-05-10T17:20:59.984Z,15.80
2018-05-10T17:23:28.377Z,15.80
2018-05-10T17:25:56.637Z,15.80
2018-05-10T17:28:24.901Z,15.80
2018-05-10T17:30:53.157Z,15.80
2018-05-10T17:33:21.527Z,15.60
2018-05-10T17:35:50.612Z,15.70
2018-05-10T17:38:19.967Z,15.70
2018-05-10T17:40:48.236Z,15.80
2018-05-10T17:43:17.561Z,16.00
2018-05-10T17:45:46.181Z,15.90
2018-05-10T17:48:15.354Z,16.10
2018-05-10T17:50:43.677Z,16.10
2018-05-10T17:53:11.949Z,16.10
2018-05-10T17:55:40.212Z,16.00
2018-05-10T17:58:09.299Z,16.10
2018-05-10T18:00:38.532Z,16.10
2018-05-10T18:03:06.763Z,16.10
2018-05-10T18:05:35.045Z,16.00
2018-05-10T18:08:03.317Z,16.00
2018-05-10T18:10:31.873Z,16.10
2018-05-10T18:13:00.131Z,16.10
2018-05-10T18:15:28.546Z,16.00
2018-05-10T18:17:56.790Z,16.10
2018-05-10T18:20:25.077Z,16.10
2018-05-10T18:22:53.849Z,16.00
2018-05-10T18:25:22.288Z,16.00
2018-05-10T18:27:50.901Z,16.00
2018-05-10T18:30:19.210Z,15.90
2018-05-10T18:32:47.467Z,16.00
2018-05-10T18:35:15.783Z,16.00
2018-05-10T18:37:44.175Z,15.90
2018-05-10T18:40:12.433Z,15.90
2018-05-10T18:42:40.712Z,15.90
2018-05-10T18:45:09.246Z,15.90
2018-05-10T18:47:37.652Z,15.90
2018-05-10T18:50:06.149Z,15.90
2018-05-10T18:52:34.450Z,16.00
2018-05-10T18:55:03.231Z,15.90
2018-05-10T18:57:31.976Z,15.80
2018-05-10T19:00:01.629Z,15.90
2018-05-10T19:02:30.196Z,15.90
2018-05-10T19:04:58.668Z,15.90
2018-05-10T19:07:26.983Z,15.90
2018-05-10T19:09:55.253Z,15.90
2018-05-10T19:12:23.524Z,16.00
2018-05-10T19:14:52.601Z,16.00
2018-05-10T19:17:20.954Z,16.00
2018-05-10T19:19:49.283Z,16.00
2018-05-10T19:22:17.561Z,16.10
2018-05-10T19:24:45.914Z,16.10
2018-05-10T19:27:14.183Z,16.10
2018-05-10T19:29:42.468Z,16.10
2018-05-10T19:32:10.769Z,16.10
2018-05-10T19:34:39.303Z,16.10
2018-05-10T19:37:07.599Z,16.10
2018-05-10T19:39:35.868Z,16.00
2018-05-10T19:42:04.153Z,16.00
2018-05-10T19:44:32.433Z,16.00
2018-05-10T19:47:00.710Z,16.00
2018-05-10T19:49:28.978Z,16.00
2018-05-10T19:51:57.317Z,16.00
2018-05-10T19:54:25.632Z,16.10
2018-05-10T19:56:54.643Z,16.10
2018-05-10T19:59:22.903Z,16.00
2018-05-10T20:01:51.171Z,16.00
2018-05-10T20:04:19.433Z,16.00
2018-05-10T20:06:47.740Z,16.10
2018-05-10T20:09:16.032Z,16.10
2018-05-10T20:11:45.199Z,16.10
2018-05-10T20:14:13.730Z,16.10
2018-05-10T20:16:42.786Z,16.10
2018-05-10T20:19:11.067Z,16.10
2018-05-10T20:21:39.344Z,16.10
2018-05-10T20:24:07.758Z,16.00
2018-05-10T20:26:35.959Z,16.10
2018-05-10T20:29:04.236Z,16.10
2018-05-10T20:31:32.477Z,16.10
2018-05-10T20:34:00.750Z,16.10
2018-05-10T20:36:29.703Z,16.20
2018-05-10T20:38:58.464Z,16.20
2018-05-10T20:41:26.847Z,16.20
2018-05-10T20:43:55.162Z,16.20
2018-05-10T20:46:23.427Z,16.10
2018-05-10T20:48:51.704Z,16.00
2018-05-10T20:51:19.979Z,16.10
2018-05-10T20:53:48.254Z,16.10
2018-05-10T20:56:16.585Z,16.10
2018-05-10T20:58:44.844Z,16.10
2018-05-10T21:01:13.887Z,16.00
2018-05-10T21:03:42.241Z,15.90
2018-05-10T21:06:10.410Z,16.00
2018-05-10T21:08:38.722Z,15.90
2018-05-10T21:11:07.150Z,16.00
2018-05-10T21:13:36.207Z,16.00
2018-05-10T21:16:04.656Z,16.00
2018-05-10T21:18:32.923Z,16.00
2018-05-10T21:21:01.179Z,15.90
2018-05-10T21:23:30.361Z,16.00
2018-05-10T21:25:59.432Z,16.10
2018-05-10T21:28:28.861Z,16.00
2018-05-10T21:30:57.171Z,16.10
2018-05-10T21:33:25.425Z,16.00
2018-05-10T21:35:54.488Z,16.10
2018-05-10T21:38:22.764Z,16.00
2018-05-10T21:40:51.600Z,16.10
2018-05-10T21:43:19.861Z,16.10
2018-05-10T21:45:48.143Z,16.10
2018-05-10T21:48:16.502Z,16.20
2018-05-10T21:50:44.829Z,16.10
2018-05-10T21:53:13.538Z,16.00
2018-05-10T21:55:41.698Z,15.80
2018-05-10T21:58:10.002Z,15.80
2018-05-10T22:00:38.552Z,15.80
2018-05-10T22:03:06.839Z,15.80
2018-05-10T22:05:35.266Z,15.70
2018-05-10T22:08:04.298Z,15.80
2018-05-10T22:10:32.598Z,15.80
2018-05-10T22:13:01.507Z,15.90
2018-05-10T22:15:29.783Z,16.00
2018-05-10T22:17:58.047Z,15.90
2018-05-10T22:20:26.381Z,15.90
2018-05-10T22:22:54.849Z,16.00
2018-05-10T22:25:23.188Z,15.90
2018-05-10T22:27:51.544Z,15.90
2018-05-10T22:30:19.798Z,15.80
2018-05-10T22:32:48.074Z,15.80
2018-05-10T22:35:16.355Z,15.70
2018-05-10T22:37:44.618Z,15.80
2018-05-10T22:40:12.946Z,15.80
2018-05-10T22:42:41.201Z,15.80
2018-05-10T22:45:09.448Z,15.80
2018-05-10T22:47:37.792Z,15.90
2018-05-10T22:50:06.069Z,15.80
2018-05-10T22:52:34.327Z,15.80
2018-05-10T22:55:02.711Z,15.80
2018-05-10T22:57:30.990Z,15.80
2018-05-10T22:59:59.243Z,15.80
2018-05-10T23:02:27.512Z,15.70
2018-05-10T23:04:55.775Z,15.70
2018-05-10T23:07:24.066Z,15.70
2018-05-10T23:09:52.330Z,15.70
2018-05-10T23:12:20.596Z,15.60
2018-05-10T23:14:49.020Z,15.70
2018-05-10T23:17:17.300Z,15.50
2018-05-10T23:19:45.568Z,15.50
2018-05-10T23:22:13.828Z,15.60
2018-05-10T23:24:42.115Z,15.60
2018-05-10T23:27:10.392Z,15.50
2018-05-10T23:29:38.756Z,15.50
2018-05-10T23:32:07.016Z,15.40
2018-05-10T23:34:35.404Z,15.20
2018-05-10T23:37:03.658Z,15.30
2018-05-10T23:39:32.069Z,15.40
2018-05-10T23:42:00.565Z,15.40
2018-05-10T23:44:29.701Z,15.40
2018-05-10T23:46:58.832Z,15.40
2018-05-10T23:49:27.142Z,15.40
2018-05-10T23:51:55.711Z,15.40
2018-05-10T23:54:24.224Z,15.40
2018-05-10T23:56:53.124Z,15.50
2018-05-10T23:59:22.161Z,15.50
